Time;durP1;ratioP1;P1;durP2;ratioP2;P2;SDS_P1;SDS_P2;PMS_P1;PMS_P2;Temp;Humidity;BMP_temperature;BMP_pressure;BME280_temperature;BME280_humidity;BME280_pressure;Samples;Min_cycle;Max_cycle;Signal;HPM_P1;HPM_P2
2024/04/24 00:01:12;;;;;;;5.13;4.63;;;2.30;84.70;;;;;;5475586;26;20885;-76
2024/04/24 00:03:43;;;;;;;7.57;4.50;;;2.20;85.20;;;;;;5468367;26;20690;-76
2024/04/24 00:06:09;;;;;;;4.30;3.90;;;2.30;85.40;;;;;;5481350;26;20317;-75
2024/04/24 00:08:38;;;;;;;5.65;4.88;;;2.30;84.90;;;;;;5474276;26;20612;-75
2024/04/24 00:11:07;;;;;;;4.30;4.00;;;2.20;84.30;;;;;;5474928;26;20256;-75
2024/04/24 00:13:36;;;;;;;5.53;4.55;;;2.20;84.10;;;;;;5483053;26;20270;-76
2024/04/24 00:16:05;;;;;;;4.63;4.05;;;2.20;85.00;;;;;;5438064;26;20255;-75
2024/04/24 00:18:34;;;;;;;5.70;4.45;;;2.20;84.70;;;;;;5448579;26;20286;-75
2024/04/24 00:21:05;;;;;;;4.30;3.65;;;2.10;85.20;;;;;;5448467;26;20305;-75
2024/04/24 00:23:34;;;;;;;5.55;4.15;;;2.10;84.90;;;;;;5469626;26;21180;-75
2024/04/24 00:26:03;;;;;;;6.22;5.07;;;2.10;85.00;;;;;;5475896;26;20252;-75
2024/04/24 00:28:32;;;;;;;8.20;5.05;;;2.00;85.10;;;;;;5479288;26;20274;-75
2024/04/24 00:31:01;;;;;;;3.70;3.40;;;2.00;85.10;;;;;;5451321;26;20295;-75
2024/04/24 00:33:29;;;;;;;4.82;4.40;;;1.90;85.30;;;;;;5452612;26;20278;-75
2024/04/24 00:35:58;;;;;;;4.55;4.03;;;2.00;86.10;;;;;;5452257;26;20265;-75
2024/04/24 00:38:29;;;;;;;6.25;4.60;;;2.00;86.20;;;;;;5457371;26;20279;-75
2024/04/24 00:40:58;;;;;;;8.27;4.88;;;1.90;86.80;;;;;;5458207;26;20283;-75
2024/04/24 00:43:27;;;;;;;5.10;4.10;;;1.90;87.90;;;;;;5447622;26;20240;-75
2024/04/24 00:45:57;;;;;;;4.65;4.10;;;1.90;88.20;;;;;;5469998;26;20250;-75
2024/04/24 00:48:25;;;;;;;6.07;4.95;;;1.90;87.40;;;;;;5463434;26;20252;-75
2024/04/24 00:50:55;;;;;;;4.32;3.92;;;1.80;87.00;;;;;;5445195;26;20597;-75
2024/04/24 00:53:35;;;;;;;6.35;4.40;;;1.80;87.30;;;;;;5451143;26;20251;-74
2024/04/24 00:56:06;;;;;;;5.30;4.80;;;1.80;87.30;;;;;;5475060;26;20265;-75
2024/04/24 00:58:38;;;;;;;8.18;4.93;;;1.90;87.50;;;;;;5455023;26;20285;-75
2024/04/24 01:01:09;;;;;;;6.13;5.20;;;1.90;85.90;;;;;;5477177;26;20295;-75
2024/04/24 01:03:36;;;;;;;5.10;4.60;;;1.90;87.20;;;;;;5446804;26;20611;-75
2024/04/24 01:06:05;;;;;;;5.65;4.32;;;1.90;87.20;;;;;;5474320;26;20962;-76
2024/04/24 01:08:36;;;;;;;5.18;4.40;;;1.80;86.40;;;;;;5478502;26;20270;-75
2024/04/24 01:11:06;;;;;;;4.75;4.00;;;1.80;87.40;;;;;;5480115;26;20340;-76
2024/04/24 01:13:35;;;;;;;4.97;4.47;;;1.80;87.60;;;;;;5439191;26;20277;-75
2024/04/24 01:16:08;;;;;;;6.03;5.43;;;1.80;86.60;;;;;;5476108;26;20258;-75
2024/04/24 01:18:42;;;;;;;3.92;3.38;;;1.90;87.00;;;;;;5479808;26;20246;-75
2024/04/24 01:21:13;;;;;;;4.82;3.90;;;2.00;85.40;;;;;;5451153;26;20269;-75
2024/04/24 01:23:51;;;;;;;5.50;4.97;;;2.00;85.90;;;;;;5470926;26;20310;-75
2024/04/24 01:26:27;;;;;;;7.68;4.43;;;2.10;86.60;;;;;;5447312;26;20295;-74
2024/04/24 01:28:59;;;;;;;7.13;4.75;;;2.10;86.60;;;;;;5463238;26;20267;-75
2024/04/24 01:31:28;;;;;;;5.68;4.03;;;2.20;86.50;;;;;;5453428;26;20761;-75
2024/04/24 01:33:57;;;;;;;5.38;4.88;;;2.00;86.70;;;;;;5481345;26;20243;-75
2024/04/24 01:36:26;;;;;;;4.45;3.72;;;2.10;88.10;;;;;;5450891;26;20694;-76
2024/04/24 01:38:55;;;;;;;5.43;4.50;;;2.20;87.10;;;;;;5460657;26;20243;-75
2024/04/24 01:41:24;;;;;;;6.38;5.30;;;2.20;87.70;;;;;;5443059;26;20290;-75
2024/04/24 01:43:54;;;;;;;4.55;4.13;;;2.30;86.50;;;;;;5447407;26;20236;-75
2024/04/24 01:46:25;;;;;;;4.80;4.38;;;2.40;87.10;;;;;;5460782;26;20243;-75
2024/04/24 01:48:54;;;;;;;4.75;4.00;;;2.30;87.30;;;;;;5468986;26;20281;-75
2024/04/24 01:51:23;;;;;;;6.65;4.93;;;2.40;87.60;;;;;;5463899;26;20262;-76
2024/04/24 01:53:55;;;;;;;4.63;4.13;;;2.40;87.20;;;;;;5453111;26;20243;-75
2024/04/24 01:56:24;;;;;;;5.63;5.13;;;2.50;86.20;;;;;;5465089;26;20239;-76
2024/04/24 01:58:53;;;;;;;4.85;4.38;;;2.50;86.70;;;;;;5450116;26;20236;-76
2024/04/24 02:01:25;;;;;;;5.30;4.15;;;2.60;86.40;;;;;;5461886;26;20247;-76
2024/04/24 02:03:54;;;;;;;6.97;5.55;;;2.70;85.80;;;;;;5467708;26;20269;-76
2024/04/24 02:06:24;;;;;;;4.97;4.50;;;2.70;84.90;;;;;;5449145;26;20248;-75
2024/04/24 02:08:53;;;;;;;4.88;4.47;;;2.70;86.60;;;;;;5413829;26;20423;-76
2024/04/24 02:11:22;;;;;;;5.30;4.78;;;2.70;87.40;;;;;;5460294;26;21064;-76
2024/04/24 02:13:52;;;;;;;6.13;4.85;;;2.70;87.80;;;;;;5476289;26;20298;-75
2024/04/24 02:16:21;;;;;;;7.07;4.95;;;2.80;87.60;;;;;;5449845;26;20374;-75
2024/04/24 02:18:53;;;;;;;9.55;5.38;;;2.90;87.40;;;;;;5457766;26;20240;-76
2024/04/24 02:21:22;;;;;;;5.03;4.53;;;2.90;87.60;;;;;;5456697;26;20242;-75
2024/04/24 02:23:51;;;;;;;6.65;6.00;;;2.90;86.90;;;;;;5473296;26;20252;-76
2024/04/24 02:26:17;;;;;;;6.32;5.30;;;2.90;88.00;;;;;;5462650;26;20243;-75
2024/04/24 02:28:46;;;;;;;6.40;4.85;;;2.80;88.00;;;;;;5468994;26;20235;-75
2024/04/24 02:31:15;;;;;;;6.47;5.13;;;2.70;87.20;;;;;;5471005;26;20289;-76
2024/04/24 02:33:44;;;;;;;5.60;5.10;;;2.80;87.40;;;;;;5470009;26;20241;-76
2024/04/24 02:36:15;;;;;;;5.97;4.90;;;2.80;87.20;;;;;;5453632;26;20261;-75
2024/04/24 02:38:44;;;;;;;6.90;5.70;;;2.80;87.80;;;;;;5460731;26;20258;-75
2024/04/24 02:41:13;;;;;;;5.30;4.80;;;2.80;87.80;;;;;;5475238;26;20273;-76
2024/04/24 02:43:41;;;;;;;6.55;5.82;;;2.80;89.00;;;;;;5469953;26;20721;-75
2024/04/24 02:46:11;;;;;;;5.00;4.50;;;2.90;90.00;;;;;;5449914;26;20596;-75
2024/04/24 02:48:40;;;;;;;7.03;5.80;;;2.90;90.30;;;;;;5457854;26;20273;-75
2024/04/24 02:51:08;;;;;;;8.07;5.65;;;3.00;90.30;;;;;;5464670;26;20372;-75
2024/04/24 02:53:40;;;;;;;6.75;5.80;;;3.00;89.70;;;;;;5477076;26;20259;-75
2024/04/24 02:56:09;;;;;;;5.97;5.30;;;2.90;90.00;;;;;;5463341;26;20406;-75
2024/04/24 02:58:38;;;;;;;5.78;5.15;;;2.90;90.20;;;;;;5462969;26;20241;-75
2024/04/24 03:01:14;;;;;;;6.50;5.70;;;2.90;90.20;;;;;;5470126;26;20269;-75
2024/04/24 03:03:43;;;;;;;6.78;5.80;;;2.90;90.40;;;;;;5465288;26;20300;-75
2024/04/24 03:06:11;;;;;;;7.05;5.60;;;2.90;90.30;;;;;;5468061;26;20293;-75
2024/04/24 03:08:43;;;;;;;6.15;5.18;;;2.80;90.60;;;;;;5466774;26;20274;-76
2024/04/24 03:11:11;;;;;;;7.60;6.47;;;2.80;90.30;;;;;;5445230;26;20288;-76
2024/04/24 03:13:40;;;;;;;9.20;5.80;;;2.90;90.40;;;;;;5449875;26;20283;-76
2024/04/24 03:16:09;;;;;;;8.02;6.43;;;2.80;89.70;;;;;;5447376;26;20248;-76
2024/04/24 03:18:38;;;;;;;7.07;6.38;;;2.80;89.60;;;;;;5448958;26;20350;-74
2024/04/24 03:21:07;;;;;;;8.82;6.50;;;2.80;89.60;;;;;;5443917;26;20244;-75
2024/04/24 03:23:36;;;;;;;7.05;6.10;;;2.70;89.80;;;;;;5444865;26;20252;-75
2024/04/24 03:26:11;;;;;;;7.60;6.85;;;2.60;90.00;;;;;;5458942;26;20253;-75
2024/04/24 03:28:41;;;;;;;5.97;5.13;;;2.50;89.70;;;;;;5449713;26;20604;-75
2024/04/24 03:31:08;;;;;;;7.47;6.32;;;2.50;89.50;;;;;;5448116;26;20254;-75
2024/04/24 03:33:36;;;;;;;7.43;6.60;;;2.50;90.20;;;;;;5476871;26;21221;-75
2024/04/24 03:36:06;;;;;;;7.65;6.50;;;2.50;90.30;;;;;;5477008;26;20278;-75
2024/04/24 03:38:35;;;;;;;8.50;7.50;;;2.40;90.70;;;;;;5467622;26;20265;-75
2024/04/24 03:41:06;;;;;;;7.15;6.45;;;2.40;90.70;;;;;;5450360;26;20255;-75
2024/04/24 03:43:37;;;;;;;7.72;6.57;;;2.40;90.80;;;;;;5478414;26;20235;-75
2024/04/24 03:46:08;;;;;;;7.15;6.22;;;2.50;90.80;;;;;;5451469;26;20833;-75
2024/04/24 03:48:36;;;;;;;7.28;6.00;;;2.50;90.50;;;;;;5462950;26;20305;-75
2024/04/24 03:51:06;;;;;;;6.78;6.05;;;2.60;90.40;;;;;;5453195;26;20244;-76
2024/04/24 03:53:34;;;;;;;6.75;6.13;;;2.50;90.30;;;;;;5470535;26;20568;-75
2024/04/24 03:56:03;;;;;;;6.07;5.57;;;2.50;90.50;;;;;;5480597;26;20269;-76
2024/04/24 03:58:32;;;;;;;7.50;6.70;;;2.50;90.70;;;;;;5469248;26;20243;-76
2024/04/24 04:01:04;;;;;;;7.15;6.15;;;2.50;90.50;;;;;;5462929;26;20347;-76
2024/04/24 04:03:32;;;;;;;7.63;6.80;;;2.50;90.10;;;;;;5448786;26;20247;-75
2024/04/24 04:06:01;;;;;;;10.23;6.68;;;2.50;90.00;;;;;;5453780;26;20341;-76
2024/04/24 04:08:31;;;;;;;7.38;6.68;;;2.60;89.40;;;;;;5484934;26;20658;-75
2024/04/24 04:11:00;;;;;;;7.30;6.60;;;2.60;89.10;;;;;;5454309;26;20244;-76
2024/04/24 04:13:28;;;;;;;8.32;6.45;;;2.60;88.40;;;;;;5478473;26;20247;-75
2024/04/24 04:15:57;;;;;;;6.82;6.22;;;2.60;88.30;;;;;;5454117;26;20251;-76
2024/04/24 04:18:29;;;;;;;6.63;6.00;;;2.50;89.30;;;;;;5467944;26;20256;-75
2024/04/24 04:20:57;;;;;;;8.02;6.22;;;2.50;90.00;;;;;;5461277;26;20280;-76
2024/04/24 04:23:24;;;;;;;7.05;6.35;;;2.50;89.40;;;;;;5446133;26;20259;-76
2024/04/24 04:25:52;;;;;;;7.15;6.18;;;2.60;88.90;;;;;;5454039;26;20277;-75
2024/04/24 04:28:21;;;;;;;7.78;6.68;;;2.60;88.50;;;;;;5452318;26;20271;-75
2024/04/24 04:30:52;;;;;;;9.30;6.68;;;2.60;89.80;;;;;;5481786;26;20255;-75
2024/04/24 04:33:21;;;;;;;6.93;6.28;;;2.70;89.60;;;;;;5448317;26;20266;-74
2024/04/24 04:35:53;;;;;;;8.90;6.85;;;2.60;89.60;;;;;;5455115;26;20721;-76
2024/04/24 04:38:21;;;;;;;10.63;7.93;;;2.60;89.30;;;;;;5461526;26;20240;-77
2024/04/24 04:40:50;;;;;;;7.60;6.45;;;2.60;89.60;;;;;;5468958;26;20243;-79
2024/04/24 04:43:19;;;;;;;11.43;7.75;;;2.60;89.30;;;;;;5469286;26;20256;-79
2024/04/24 04:45:48;;;;;;;9.43;6.68;;;2.60;89.40;;;;;;5456642;26;20248;-77
2024/04/24 04:48:17;;;;;;;7.28;6.30;;;2.50;89.70;;;;;;5452580;26;20344;-76
2024/04/24 04:50:46;;;;;;;8.40;6.60;;;2.50;89.60;;;;;;5459593;26;20332;-76
2024/04/24 04:53:17;;;;;;;6.15;5.65;;;2.40;90.20;;;;;;5466904;26;20339;-76
2024/04/24 04:55:46;;;;;;;7.50;6.70;;;2.30;90.10;;;;;;5474473;26;20251;-76
2024/04/24 04:58:15;;;;;;;9.82;6.57;;;2.30;90.20;;;;;;5470367;26;20243;-77
2024/04/24 05:00:44;;;;;;;11.63;6.97;;;2.20;90.30;;;;;;5472845;26;20349;-76
2024/04/24 05:03:13;;;;;;;7.32;6.53;;;2.20;90.60;;;;;;5453833;26;20236;-76
2024/04/24 05:05:41;;;;;;;8.40;6.70;;;2.10;90.70;;;;;;5449901;26;20259;-76
2024/04/24 05:08:10;;;;;;;8.38;6.85;;;2.10;90.90;;;;;;5463860;26;20248;-75
2024/04/24 05:10:42;;;;;;;10.38;7.50;;;2.10;90.90;;;;;;5447255;26;20261;-76
2024/04/24 05:13:16;;;;;;;8.52;6.80;;;2.20;90.90;;;;;;5447416;26;20656;-76
2024/04/24 05:15:44;;;;;;;10.20;7.53;;;2.30;90.90;;;;;;5434509;26;20240;-76
2024/04/24 05:18:13;;;;;;;8.10;6.95;;;2.40;90.80;;;;;;5478712;26;20239;-76
2024/04/24 05:20:42;;;;;;;7.50;6.80;;;2.60;90.60;;;;;;5454691;26;20255;-76
2024/04/24 05:23:11;;;;;;;8.07;7.28;;;2.70;90.10;;;;;;5451209;26;20244;-73
2024/04/24 05:25:51;;;;;;;7.68;6.88;;;2.80;89.40;;;;;;5456859;26;20257;-74
2024/04/24 05:31:06;;;;;;;7.30;6.60;;;3.10;88.30;;;;;;5474235;26;20264;-75
2024/04/24 05:33:35;;;;;;;8.85;6.40;;;3.20;87.50;;;;;;5479896;26;20243;-74
2024/04/24 05:36:04;;;;;;;8.63;6.55;;;3.30;86.60;;;;;;5463082;26;20248;-75
2024/04/24 05:38:33;;;;;;;7.13;5.80;;;3.40;86.60;;;;;;5451811;26;20352;-73
2024/04/24 05:41:06;;;;;;;6.32;5.72;;;3.50;86.30;;;;;;5453031;26;20262;-73
2024/04/24 05:43:34;;;;;;;6.53;5.85;;;3.70;85.60;;;;;;5466972;26;20274;-72
2024/04/24 05:46:03;;;;;;;10.88;5.75;;;3.70;83.90;;;;;;5452419;26;20839;-73
2024/04/24 05:48:32;;;;;;;5.63;4.72;;;3.80;83.80;;;;;;5477570;26;20239;-71
2024/04/24 05:51:01;;;;;;;7.30;5.20;;;4.00;83.80;;;;;;5452826;26;20271;-72
2024/04/24 05:53:30;;;;;;;6.68;5.80;;;4.10;83.50;;;;;;5466765;26;20264;-73
2024/04/24 05:55:58;;;;;;;9.10;5.40;;;4.00;82.70;;;;;;5458950;26;20273;-73
2024/04/24 05:58:30;;;;;;;6.70;4.40;;;4.30;82.70;;;;;;5469253;26;20333;-78
2024/04/24 06:00:58;;;;;;;7.13;5.10;;;4.20;81.10;;;;;;5464074;26;20752;-77
2024/04/24 06:03:27;;;;;;;7.72;5.15;;;4.20;81.70;;;;;;5462965;26;20249;-76
2024/04/24 06:05:57;;;;;;;6.28;4.80;;;4.10;82.40;;;;;;5444665;26;20251;-77
2024/04/24 06:08:26;;;;;;;5.75;4.82;;;4.10;82.50;;;;;;5447549;26;20282;-76
2024/04/24 06:10:54;;;;;;;6.43;5.25;;;4.10;81.50;;;;;;5450903;26;20246;-76
2024/04/24 06:13:23;;;;;;;6.05;5.22;;;4.20;81.70;;;;;;5449683;26;20676;-76
2024/04/24 06:15:55;;;;;;;7.10;5.38;;;4.40;81.70;;;;;;5472966;26;20288;-76
2024/04/24 06:18:23;;;;;;;6.63;5.80;;;4.30;80.80;;;;;;5447999;26;20271;-77
2024/04/24 06:20:52;;;;;;;6.10;5.50;;;4.30;80.10;;;;;;5474185;26;20241;-77
2024/04/24 06:23:21;;;;;;;7.13;5.97;;;4.30;80.20;;;;;;5478927;26;20256;-77
2024/04/24 06:25:50;;;;;;;7.00;5.50;;;4.50;81.60;;;;;;5464823;26;20269;-76
2024/04/24 06:28:20;;;;;;;10.10;6.10;;;4.80;81.70;;;;;;5449813;26;20240;-77
2024/04/24 06:30:49;;;;;;;9.88;6.05;;;5.00;81.70;;;;;;5478750;26;20249;-76
2024/04/24 06:33:21;;;;;;;7.38;6.55;;;5.30;80.80;;;;;;5440331;26;20243;-77
2024/04/24 06:35:50;;;;;;;6.43;5.80;;;5.50;80.80;;;;;;5473111;26;20243;-76
2024/04/24 06:38:19;;;;;;;7.35;6.70;;;5.70;79.20;;;;;;5461420;26;20310;-76
2024/04/24 06:40:48;;;;;;;7.38;6.25;;;5.80;78.40;;;;;;5469977;26;20254;-77
2024/04/24 06:43:19;;;;;;;8.13;7.30;;;5.90;78.10;;;;;;5473880;26;20351;-76
2024/04/24 06:45:48;;;;;;;8.90;8.00;;;5.90;77.60;;;;;;5454962;26;20241;-76
2024/04/24 06:48:17;;;;;;;8.27;7.38;;;5.70;75.00;;;;;;5471882;26;20259;-76
2024/04/24 06:50:57;;;;;;;8.00;7.05;;;5.70;77.10;;;;;;5473368;26;20243;-77
2024/04/24 06:53:26;;;;;;;10.43;7.22;;;5.80;76.10;;;;;;5470622;26;20293;-77
2024/04/24 06:55:55;;;;;;;23.88;9.00;;;5.80;77.70;;;;;;5452713;26;20733;-76
2024/04/24 06:58:24;;;;;;;9.27;7.43;;;5.90;78.20;;;;;;5441707;26;20270;-76
2024/04/24 07:00:53;;;;;;;13.63;8.13;;;5.90;76.60;;;;;;5471038;26;20243;-76
2024/04/24 07:03:23;;;;;;;8.98;7.93;;;6.00;78.40;;;;;;5449694;26;20291;-77
2024/04/24 07:05:55;;;;;;;11.27;7.72;;;6.00;77.40;;;;;;5476662;26;20333;-76
2024/04/24 07:08:24;;;;;;;9.93;8.50;;;6.00;76.60;;;;;;5468496;26;20572;-75
2024/04/24 07:10:53;;;;;;;8.27;7.47;;;6.00;76.90;;;;;;5460437;26;20911;-76
2024/04/24 07:13:22;;;;;;;11.43;7.97;;;6.10;77.10;;;;;;5450835;26;20252;-75
2024/04/24 07:15:51;;;;;;;10.60;8.20;;;6.20;77.00;;;;;;5440241;26;20266;-76
2024/04/24 07:18:20;;;;;;;9.70;8.63;;;6.20;74.80;;;;;;5474736;26;20246;-76
2024/04/24 07:20:46;;;;;;;10.00;8.98;;;6.00;73.30;;;;;;5452838;26;20764;-76
2024/04/24 07:23:19;;;;;;;9.52;7.47;;;6.00;74.80;;;;;;5476184;26;20235;-77
2024/04/24 07:25:48;;;;;;;8.68;7.78;;;6.10;75.70;;;;;;5477755;26;20277;-76
2024/04/24 07:28:17;;;;;;;9.75;8.68;;;6.20;74.60;;;;;;5479855;26;20269;-77
2024/04/24 07:30:47;;;;;;;10.82;9.00;;;6.10;73.20;;;;;;5479231;26;20274;-76
2024/04/24 07:33:15;;;;;;;11.77;8.82;;;5.90;73.40;;;;;;5481588;26;20274;-76
2024/04/24 07:35:44;;;;;;;10.55;9.45;;;5.80;73.90;;;;;;5470266;26;20240;-77
2024/04/24 07:38:15;;;;;;;12.35;8.68;;;5.80;73.10;;;;;;5447858;26;20321;-76
2024/04/24 07:40:47;;;;;;;9.70;8.55;;;5.90;75.00;;;;;;5463840;26;20247;-77
2024/04/24 07:43:15;;;;;;;14.18;10.18;;;5.80;77.40;;;;;;5458711;26;20266;-76
2024/04/24 07:45:44;;;;;;;9.98;8.55;;;5.90;78.40;;;;;;5464904;26;20267;-76
2024/04/24 07:48:13;;;;;;;10.77;9.38;;;5.90;79.30;;;;;;5470049;26;20243;-77
2024/04/24 07:50:45;;;;;;;10.20;8.20;;;6.00;78.80;;;;;;5472961;26;20841;-76
2024/04/24 07:53:15;;;;;;;9.70;8.63;;;6.00;77.40;;;;;;5468296;26;20603;-77
2024/04/24 07:55:46;;;;;;;9.10;8.15;;;5.90;76.70;;;;;;5482281;26;20238;-76
2024/04/24 07:58:15;;;;;;;10.20;8.15;;;5.80;79.00;;;;;;5452000;26;20244;-77
2024/04/24 08:00:44;;;;;;;9.65;8.65;;;5.80;78.00;;;;;;5447255;26;20247;-77
2024/04/24 08:03:13;;;;;;;8.73;7.65;;;5.70;77.30;;;;;;5453597;26;20816;-77
2024/04/24 08:05:42;;;;;;;9.40;7.95;;;5.80;78.50;;;;;;5458596;26;20244;-76
2024/04/24 08:08:10;;;;;;;11.80;8.45;;;5.90;79.20;;;;;;5456797;26;20243;-77
2024/04/24 08:10:39;;;;;;;11.93;9.13;;;5.90;79.90;;;;;;5459732;26;20264;-77
2024/04/24 08:13:11;;;;;;;11.55;8.13;;;5.90;80.70;;;;;;5475390;26;20235;-76
2024/04/24 08:15:39;;;;;;;10.07;8.23;;;5.90;80.70;;;;;;5460903;26;20286;-77
2024/04/24 08:18:08;;;;;;;10.75;8.80;;;6.00;80.70;;;;;;5470415;26;20244;-77
2024/04/24 08:20:37;;;;;;;9.88;7.80;;;6.00;80.70;;;;;;5473797;26;20826;-77
2024/04/24 08:23:07;;;;;;;9.90;7.80;;;6.00;80.30;;;;;;5472585;26;20286;-77
2024/04/24 08:25:35;;;;;;;9.32;8.43;;;6.00;80.10;;;;;;5448582;26;20263;-77
2024/04/24 08:28:04;;;;;;;8.93;8.07;;;6.00;80.40;;;;;;5474997;26;20670;-77
2024/04/24 08:30:36;;;;;;;8.88;8.02;;;5.90;81.00;;;;;;5456277;26;20728;-77
2024/04/24 08:33:05;;;;;;;8.95;8.05;;;6.00;82.60;;;;;;5472533;26;20243;-77
2024/04/24 08:35:35;;;;;;;8.90;8.00;;;6.20;82.40;;;;;;5455610;26;20239;-78
2024/04/24 08:38:03;;;;;;;10.45;9.35;;;6.20;80.60;;;;;;5471040;26;20280;-76
2024/04/24 08:40:33;;;;;;;8.63;7.75;;;6.30;80.50;;;;;;5473773;26;20614;-77
2024/04/24 08:43:02;;;;;;;9.77;8.60;;;6.30;79.10;;;;;;5460250;26;20239;-77
2024/04/24 08:45:32;;;;;;;8.82;7.93;;;6.30;76.50;;;;;;5470771;26;20254;-77
2024/04/24 08:48:04;;;;;;;11.48;8.05;;;6.40;77.10;;;;;;5457200;26;20286;-77
2024/04/24 08:50:33;;;;;;;8.57;7.72;;;6.60;78.40;;;;;;5470975;26;20244;-77
2024/04/24 08:53:06;;;;;;;8.45;7.65;;;6.50;75.20;;;;;;5476970;26;20576;-77
2024/04/24 08:55:38;;;;;;;10.90;8.25;;;6.60;74.50;;;;;;5481758;26;20261;-75
2024/04/24 08:58:08;;;;;;;12.05;9.05;;;6.60;74.90;;;;;;5451137;26;20317;-75
2024/04/24 09:00:40;;;;;;;12.15;8.57;;;6.60;75.10;;;;;;5467341;26;20252;-77
2024/04/24 09:03:22;;;;;;;8.85;7.80;;;6.60;74.10;;;;;;5446330;26;20244;-77
2024/04/24 09:05:54;;;;;;;9.80;8.50;;;6.70;75.40;;;;;;5447414;26;20239;-76
2024/04/24 09:08:24;;;;;;;10.18;8.40;;;6.60;74.10;;;;;;5448201;26;20244;-76
2024/04/24 09:10:53;;;;;;;8.68;7.78;;;6.60;74.00;;;;;;5476144;26;20235;-77
2024/04/24 09:13:22;;;;;;;9.40;8.45;;;6.60;73.40;;;;;;5467902;26;20270;-78
2024/04/24 09:15:55;;;;;;;9.35;8.32;;;6.50;71.90;;;;;;5461569;26;20624;-77
2024/04/24 09:18:27;;;;;;;10.18;8.60;;;6.30;70.90;;;;;;5457506;26;20259;-77
2024/04/24 09:20:57;;;;;;;9.73;8.38;;;6.40;72.10;;;;;;5447722;26;20991;-77
2024/04/24 09:23:26;;;;;;;10.50;8.57;;;6.20;72.50;;;;;;5446891;26;20275;-76
2024/04/24 09:25:58;;;;;;;10.35;9.25;;;6.10;74.40;;;;;;5443125;26;20383;-77
2024/04/24 09:28:27;;;;;;;9.10;8.27;;;6.10;77.40;;;;;;5468703;26;20243;-76
2024/04/24 09:30:57;;;;;;;11.30;8.77;;;6.00;80.40;;;;;;5473166;26;20270;-76
2024/04/24 09:33:28;;;;;;;9.75;8.30;;;5.90;83.30;;;;;;5462121;26;20269;-76
2024/04/24 09:35:57;;;;;;;10.38;9.38;;;5.90;84.40;;;;;;5469589;26;20243;-74
2024/04/24 09:38:26;;;;;;;10.38;9.38;;;5.80;85.00;;;;;;5463798;26;20286;-74
2024/04/24 09:40:56;;;;;;;9.60;7.95;;;5.80;85.20;;;;;;5456736;26;20255;-74
2024/04/24 09:43:24;;;;;;;11.80;9.30;;;5.80;84.00;;;;;;5447723;26;20243;-73
2024/04/24 09:45:54;;;;;;;10.82;9.43;;;5.80;84.90;;;;;;5445442;26;20299;-75
2024/04/24 09:48:24;;;;;;;10.40;9.40;;;5.70;84.80;;;;;;5446466;26;20271;-74
2024/04/24 09:50:55;;;;;;;14.85;10.50;;;5.70;86.10;;;;;;5456244;26;20269;-74
2024/04/24 09:53:25;;;;;;;9.60;8.60;;;5.90;88.40;;;;;;5477917;26;20793;-74
2024/04/24 09:56:02;;;;;;;13.07;10.27;;;5.90;86.90;;;;;;5482127;26;20595;-74
2024/04/24 09:58:34;;;;;;;10.70;9.50;;;6.00;89.50;;;;;;5444236;26;20244;-73
2024/04/24 10:01:05;;;;;;;11.27;9.43;;;6.00;88.00;;;;;;5446207;26;20279;-73
2024/04/24 10:03:34;;;;;;;10.00;9.10;;;6.10;89.20;;;;;;5445431;26;20252;-73
2024/04/24 10:06:08;;;;;;;10.48;8.73;;;6.20;88.80;;;;;;5446296;26;20252;-73
2024/04/24 10:08:39;;;;;;;10.15;8.40;;;6.20;86.40;;;;;;5477616;26;20269;-73
2024/04/24 10:11:11;;;;;;;11.30;10.20;;;6.10;83.90;;;;;;5472943;26;20247;-73
2024/04/24 10:13:43;;;;;;;11.60;9.60;;;6.20;85.20;;;;;;5439238;26;20266;-73
2024/04/24 10:16:13;;;;;;;14.82;8.70;;;6.30;84.60;;;;;;5477683;26;20258;-74
2024/04/24 10:18:44;;;;;;;10.80;9.38;;;6.30;83.70;;;;;;5478444;26;20250;-74
2024/04/24 10:21:16;;;;;;;11.68;8.82;;;6.50;84.70;;;;;;5479349;26;20282;-74
2024/04/24 10:23:45;;;;;;;9.52;8.52;;;6.50;82.50;;;;;;5479567;26;20254;-74
2024/04/24 10:26:15;;;;;;;10.68;8.82;;;6.60;85.80;;;;;;5479330;26;20355;-74
2024/04/24 10:28:45;;;;;;;10.75;8.93;;;6.70;84.10;;;;;;5435689;26;20255;-74
2024/04/24 10:31:15;;;;;;;7.65;6.95;;;6.80;85.10;;;;;;5445784;26;20328;-74
2024/04/24 10:33:45;;;;;;;6.95;6.25;;;6.60;79.80;;;;;;5479990;26;20313;-74
2024/04/24 10:36:16;;;;;;;7.40;6.65;;;6.50;81.50;;;;;;5479144;26;20247;-74
2024/04/24 10:38:47;;;;;;;6.22;5.45;;;6.50;80.70;;;;;;5457383;26;20267;-74
2024/04/24 10:41:16;;;;;;;7.80;6.25;;;6.50;81.30;;;;;;5476963;26;20835;-74
2024/04/24 10:43:46;;;;;;;6.50;5.18;;;6.50;82.30;;;;;;5486209;26;20239;-74
2024/04/24 10:46:21;;;;;;;5.28;4.78;;;6.50;80.10;;;;;;5483695;26;20852;-74
2024/04/24 10:48:57;;;;;;;6.10;5.10;;;6.40;81.60;;;;;;5484987;26;20260;-74
2024/04/24 10:51:33;;;;;;;6.80;6.20;;;6.40;82.80;;;;;;5483884;26;20246;-74
2024/04/24 10:54:03;;;;;;;5.95;5.40;;;6.50;84.10;;;;;;5485112;26;20242;-73
2024/04/24 10:56:30;;;;;;;5.57;4.93;;;6.60;82.00;;;;;;5468812;26;20244;-73
2024/04/24 10:58:59;;;;;;;6.18;5.57;;;6.70;83.40;;;;;;5451797;26;20244;-73
2024/04/24 11:01:29;;;;;;;6.90;6.05;;;6.60;82.10;;;;;;5463783;26;20243;-72
2024/04/24 11:03:57;;;;;;;7.03;6.32;;;6.70;83.80;;;;;;5446305;26;20270;-72
2024/04/24 11:06:27;;;;;;;7.00;6.30;;;6.70;83.50;;;;;;5457306;26;20267;-73
2024/04/24 11:08:59;;;;;;;5.53;5.00;;;6.70;83.00;;;;;;5453699;26;20572;-73
2024/04/24 11:11:29;;;;;;;7.95;6.78;;;6.60;82.90;;;;;;5459030;26;20625;-72
2024/04/24 11:14:02;;;;;;;6.90;5.35;;;6.60;83.90;;;;;;5455425;26;20252;-72
2024/04/24 11:16:31;;;;;;;6.30;5.70;;;6.50;82.90;;;;;;5453790;26;20320;-73
2024/04/24 11:19:00;;;;;;;6.00;5.43;;;6.40;82.00;;;;;;5469922;26;20260;-73
2024/04/24 11:21:29;;;;;;;5.47;4.97;;;6.30;82.00;;;;;;5480805;26;20736;-73
2024/04/24 11:24:01;;;;;;;5.13;4.60;;;6.20;82.40;;;;;;5455317;26;20590;-73
2024/04/24 11:26:34;;;;;;;6.03;5.43;;;6.30;82.10;;;;;;5463405;26;20285;-72
2024/04/24 11:29:00;;;;;;;4.88;4.38;;;6.20;82.10;;;;;;5447925;26;20269;-73
2024/04/24 11:31:30;;;;;;;6.05;5.53;;;6.30;83.20;;;;;;5464908;26;20274;-73
2024/04/24 11:33:59;;;;;;;5.68;5.07;;;6.40;83.50;;;;;;5469852;26;20239;-73
2024/04/24 11:36:28;;;;;;;6.55;4.55;;;6.60;83.00;;;;;;5450738;26;20287;-73
2024/04/24 11:38:57;;;;;;;6.55;5.85;;;6.70;83.20;;;;;;5452034;26;20275;-73
2024/04/24 11:41:30;;;;;;;5.45;4.90;;;7.00;83.60;;;;;;5468325;26;20244;-73
2024/04/24 11:43:59;;;;;;;5.80;4.70;;;7.00;81.00;;;;;;5438520;26;20245;-73
2024/04/24 11:46:28;;;;;;;4.90;4.38;;;7.10;82.50;;;;;;5466479;26;20737;-73
2024/04/24 11:48:57;;;;;;;5.07;4.57;;;7.10;80.60;;;;;;5473736;26;20245;-73
2024/04/24 11:51:26;;;;;;;4.80;4.30;;;7.00;80.00;;;;;;5451592;26;20263;-73
2024/04/24 11:53:56;;;;;;;4.93;4.43;;;7.10;80.70;;;;;;5465953;26;20274;-73
2024/04/24 11:56:28;;;;;;;5.68;4.20;;;7.10;80.50;;;;;;5440027;26;20277;-73
2024/04/24 11:58:57;;;;;;;4.25;3.85;;;7.40;81.30;;;;;;5452174;26;20251;-73
2024/04/24 12:01:25;;;;;;;4.68;4.15;;;7.50;78.50;;;;;;5449773;26;20244;-73
2024/04/24 12:03:55;;;;;;;3.97;3.67;;;7.50;78.30;;;;;;5453398;26;20259;-72
2024/04/24 12:06:24;;;;;;;4.32;3.92;;;7.40;79.40;;;;;;5462777;26;20552;-73
2024/04/24 12:08:53;;;;;;;3.80;3.50;;;7.60;80.50;;;;;;5471751;26;20673;-73
2024/04/24 12:11:22;;;;;;;5.20;4.70;;;7.60;78.40;;;;;;5452391;26;20494;-73
2024/04/24 12:13:53;;;;;;;6.55;5.95;;;7.70;77.30;;;;;;5471041;26;20763;-72
2024/04/24 12:16:22;;;;;;;5.67;4.97;;;7.70;77.70;;;;;;5461200;26;20348;-73
2024/04/24 12:18:51;;;;;;;5.20;4.70;;;7.80;80.10;;;;;;5453613;26;21277;-72
2024/04/24 12:21:20;;;;;;;4.47;3.90;;;7.80;78.30;;;;;;5468422;26;21149;-72
2024/04/24 12:23:49;;;;;;;6.43;5.17;;;7.80;77.70;;;;;;5448314;26;20577;-74
2024/04/24 12:26:18;;;;;;;5.70;3.70;;;8.10;78.30;;;;;;5440462;26;20774;-72
2024/04/24 12:28:47;;;;;;;5.53;4.17;;;8.40;76.20;;;;;;5451975;26;20560;-72
2024/04/24 12:31:18;;;;;;;4.43;4.03;;;8.50;76.30;;;;;;5468229;26;20550;-72
2024/04/24 12:33:47;;;;;;;4.83;4.43;;;8.70;76.80;;;;;;5468718;26;20598;-72
2024/04/24 12:36:16;;;;;;;4.13;3.77;;;9.20;77.00;;;;;;5455307;26;20598;-73
2024/04/24 12:38:45;;;;;;;4.00;3.60;;;9.60;71.50;;;;;;5470986;26;20612;-73
2024/04/24 12:41:14;;;;;;;4.30;3.70;;;9.30;70.10;;;;;;5471207;26;20563;-73
2024/04/24 12:43:43;;;;;;;8.40;3.80;;;9.60;76.10;;;;;;5463664;26;20625;-72
2024/04/24 12:46:13;;;;;;;3.90;3.27;;;9.90;69.30;;;;;;5455738;26;20561;-72
2024/04/24 12:48:45;;;;;;;3.43;3.13;;;11.50;72.60;;;;;;5458693;26;20553;-72
2024/04/24 12:51:14;;;;;;;3.93;3.53;;;13.10;66.40;;;;;;5478285;26;21146;-73
2024/04/24 12:53:42;;;;;;;3.90;3.50;;;13.40;61.80;;;;;;5455289;26;20594;-73
2024/04/24 12:56:11;;;;;;;3.83;3.53;;;14.60;59.80;;;;;;5474336;26;20572;-73
2024/04/24 12:58:40;;;;;;;5.13;4.73;;;14.10;58.10;;;;;;5468889;26;20552;-73
2024/04/24 13:01:09;;;;;;;5.03;4.57;;;12.70;58.10;;;;;;5460068;26;20584;-74
2024/04/24 13:03:38;;;;;;;4.77;3.90;;;12.30;58.70;;;;;;5466357;26;20898;-74
2024/04/24 13:06:10;;;;;;;4.20;3.80;;;11.70;60.10;;;;;;5458813;26;20610;-73
2024/04/24 13:08:38;;;;;;;4.67;4.10;;;10.90;61.40;;;;;;5462358;26;20565;-72
2024/04/24 13:11:07;;;;;;;4.33;3.93;;;10.30;61.70;;;;;;5449481;26;21117;-71